sensor_id;sensor_type;location;lat;lon;timestamp;P1;durP1;ratioP1;P2;durP2;ratioP2
75760;SDS011;64373;46.136;8.830;2024-02-23T00:00:29;2.00;;;1.27;;
75760;SDS011;64373;46.136;8.830;2024-02-23T00:02:54;1.90;;;1.00;;
75760;SDS011;64373;46.136;8.830;2024-02-23T00:05:23;2.03;;;1.20;;
75760;SDS011;64373;46.136;8.830;2024-02-23T00:07:49;1.55;;;1.20;;
75760;SDS011;64373;46.136;8.830;2024-02-23T00:10:14;1.10;;;0.90;;
75760;SDS011;64373;46.136;8.830;2024-02-23T00:12:40;1.52;;;1.00;;
75760;SDS011;64373;46.136;8.830;2024-02-23T00:15:06;0.90;;;0.80;;
75760;SDS011;64373;46.136;8.830;2024-02-23T00:17:32;1.33;;;1.00;;
75760;SDS011;64373;46.136;8.830;2024-02-23T00:19:58;1.70;;;0.93;;
75760;SDS011;64373;46.136;8.830;2024-02-23T00:22:23;1.35;;;1.25;;
75760;SDS011;64373;46.136;8.830;2024-02-23T00:24:50;1.90;;;1.00;;
75760;SDS011;64373;46.136;8.830;2024-02-23T00:27:16;0.63;;;0.63;;
75760;SDS011;64373;46.136;8.830;2024-02-23T00:29:42;1.23;;;0.82;;
75760;SDS011;64373;46.136;8.830;2024-02-23T00:32:07;1.65;;;0.93;;
75760;SDS011;64373;46.136;8.830;2024-02-23T00:34:33;1.27;;;0.80;;
75760;SDS011;64373;46.136;8.830;2024-02-23T00:36:59;0.75;;;0.60;;
75760;SDS011;64373;46.136;8.830;2024-02-23T00:39:24;1.15;;;0.60;;
75760;SDS011;64373;46.136;8.830;2024-02-23T00:41:50;1.27;;;0.68;;
75760;SDS011;64373;46.136;8.830;2024-02-23T00:44:15;0.60;;;0.40;;
75760;SDS011;64373;46.136;8.830;2024-02-23T00:46:41;0.60;;;0.60;;
75760;SDS011;64373;46.136;8.830;2024-02-23T00:49:06;0.95;;;0.50;;
75760;SDS011;64373;46.136;8.830;2024-02-23T00:51:32;1.40;;;0.50;;
75760;SDS011;64373;46.136;8.830;2024-02-23T00:53:57;0.60;;;0.40;;
75760;SDS011;64373;46.136;8.830;2024-02-23T00:56:23;0.50;;;0.43;;
75760;SDS011;64373;46.136;8.830;2024-02-23T00:58:49;0.43;;;0.30;;
75760;SDS011;64373;46.136;8.830;2024-02-23T01:01:14;1.27;;;0.60;;
75760;SDS011;64373;46.136;8.830;2024-02-23T01:03:39;1.00;;;0.50;;
75760;SDS011;64373;46.136;8.830;2024-02-23T01:06:05;0.22;;;0.20;;
75760;SDS011;64373;46.136;8.830;2024-02-23T01:08:30;0.40;;;0.30;;
75760;SDS011;64373;46.136;8.830;2024-02-23T01:10:56;0.20;;;0.20;;
75760;SDS011;64373;46.136;8.830;2024-02-23T01:13:22;0.30;;;0.20;;
75760;SDS011;64373;46.136;8.830;2024-02-23T01:15:47;0.63;;;0.30;;
75760;SDS011;64373;46.136;8.830;2024-02-23T01:18:13;0.52;;;0.52;;
75760;SDS011;64373;46.136;8.830;2024-02-23T01:20:39;0.95;;;0.20;;
75760;SDS011;64373;46.136;8.830;2024-02-23T01:23:04;0.20;;;0.20;;
75760;SDS011;64373;46.136;8.830;2024-02-23T01:25:30;1.63;;;0.17;;
75760;SDS011;64373;46.136;8.830;2024-02-23T01:27:55;0.30;;;0.30;;
75760;SDS011;64373;46.136;8.830;2024-02-23T01:30:21;0.50;;;0.30;;
75760;SDS011;64373;46.136;8.830;2024-02-23T01:32:46;0.95;;;0.40;;
75760;SDS011;64373;46.136;8.830;2024-02-23T01:35:12;1.85;;;0.43;;
75760;SDS011;64373;46.136;8.830;2024-02-23T01:37:37;0.20;;;0.20;;
75760;SDS011;64373;46.136;8.830;2024-02-23T01:40:03;0.40;;;0.30;;
75760;SDS011;64373;46.136;8.830;2024-02-23T01:42:29;0.22;;;0.22;;
75760;SDS011;64373;46.136;8.830;2024-02-23T01:44:54;0.20;;;0.10;;
75760;SDS011;64373;46.136;8.830;2024-02-23T01:47:23;0.17;;;0.17;;
75760;SDS011;64373;46.136;8.830;2024-02-23T01:49:49;0.10;;;0.10;;
75760;SDS011;64373;46.136;8.830;2024-02-23T01:52:15;0.20;;;0.15;;
75760;SDS011;64373;46.136;8.830;2024-02-23T01:54:40;0.15;;;0.10;;
75760;SDS011;64373;46.136;8.830;2024-02-23T01:57:06;0.10;;;0.10;;
75760;SDS011;64373;46.136;8.830;2024-02-23T01:59:32;1.60;;;0.20;;
75760;SDS011;64373;46.136;8.830;2024-02-23T02:01:58;0.35;;;0.20;;
75760;SDS011;64373;46.136;8.830;2024-02-23T02:04:23;0.47;;;0.25;;
75760;SDS011;64373;46.136;8.830;2024-02-23T02:06:49;0.30;;;0.30;;
75760;SDS011;64373;46.136;8.830;2024-02-23T02:09:14;0.30;;;0.20;;
75760;SDS011;64373;46.136;8.830;2024-02-23T02:11:46;0.17;;;0.10;;
75760;SDS011;64373;46.136;8.830;2024-02-23T02:14:13;0.17;;;0.17;;
75760;SDS011;64373;46.136;8.830;2024-02-23T02:16:39;0.82;;;0.10;;
75760;SDS011;64373;46.136;8.830;2024-02-23T02:19:04;0.13;;;0.13;;
75760;SDS011;64373;46.136;8.830;2024-02-23T02:21:33;0.90;;;0.20;;
75760;SDS011;64373;46.136;8.830;2024-02-23T02:23:59;0.47;;;0.30;;
75760;SDS011;64373;46.136;8.830;2024-02-23T02:26:24;0.32;;;0.22;;
75760;SDS011;64373;46.136;8.830;2024-02-23T02:28:50;0.20;;;0.20;;
75760;SDS011;64373;46.136;8.830;2024-02-23T02:31:15;0.35;;;0.22;;
75760;SDS011;64373;46.136;8.830;2024-02-23T02:33:41;0.20;;;0.20;;
75760;SDS011;64373;46.136;8.830;2024-02-23T02:36:07;0.47;;;0.30;;
75760;SDS011;64373;46.136;8.830;2024-02-23T02:38:32;0.80;;;0.40;;
75760;SDS011;64373;46.136;8.830;2024-02-23T02:41:01;0.38;;;0.38;;
75760;SDS011;64373;46.136;8.830;2024-02-23T02:43:27;0.63;;;0.50;;
75760;SDS011;64373;46.136;8.830;2024-02-23T02:45:52;0.70;;;0.50;;
75760;SDS011;64373;46.136;8.830;2024-02-23T02:48:18;0.65;;;0.50;;
75760;SDS011;64373;46.136;8.830;2024-02-23T02:50:43;1.20;;;0.45;;
75760;SDS011;64373;46.136;8.830;2024-02-23T02:53:09;0.57;;;0.40;;
75760;SDS011;64373;46.136;8.830;2024-02-23T02:55:35;0.57;;;0.30;;
75760;SDS011;64373;46.136;8.830;2024-02-23T02:58:07;0.93;;;0.70;;
75760;SDS011;64373;46.136;8.830;2024-02-23T03:00:33;1.05;;;0.77;;
75760;SDS011;64373;46.136;8.830;2024-02-23T03:02:58;2.13;;;0.90;;
75760;SDS011;64373;46.136;8.830;2024-02-23T03:05:24;1.95;;;1.10;;
75760;SDS011;64373;46.136;8.830;2024-02-23T03:07:49;0.70;;;0.60;;
75760;SDS011;64373;46.136;8.830;2024-02-23T03:10:15;1.55;;;1.00;;
75760;SDS011;64373;46.136;8.830;2024-02-23T03:12:41;15.75;;;2.45;;
75760;SDS011;64373;46.136;8.830;2024-02-23T03:15:06;1.25;;;1.00;;
75760;SDS011;64373;46.136;8.830;2024-02-23T03:17:32;1.77;;;0.90;;
75760;SDS011;64373;46.136;8.830;2024-02-23T03:19:58;0.95;;;0.88;;
75760;SDS011;64373;46.136;8.830;2024-02-23T03:22:24;0.80;;;0.70;;
75760;SDS011;64373;46.136;8.830;2024-02-23T03:24:49;0.90;;;0.60;;
75760;SDS011;64373;46.136;8.830;2024-02-23T03:27:15;0.55;;;0.50;;
75760;SDS011;64373;46.136;8.830;2024-02-23T03:29:40;2.15;;;1.02;;
75760;SDS011;64373;46.136;8.830;2024-02-23T03:32:06;1.58;;;0.80;;
75760;SDS011;64373;46.136;8.830;2024-02-23T03:34:32;0.93;;;0.63;;
75760;SDS011;64373;46.136;8.830;2024-02-23T03:36:57;1.15;;;0.70;;
75760;SDS011;64373;46.136;8.830;2024-02-23T03:39:27;0.60;;;0.50;;
75760;SDS011;64373;46.136;8.830;2024-02-23T03:41:53;0.60;;;0.50;;
75760;SDS011;64373;46.136;8.830;2024-02-23T03:44:19;0.65;;;0.57;;
75760;SDS011;64373;46.136;8.830;2024-02-23T03:46:45;0.52;;;0.40;;
75760;SDS011;64373;46.136;8.830;2024-02-23T03:49:10;0.68;;;0.50;;
75760;SDS011;64373;46.136;8.830;2024-02-23T03:51:37;1.15;;;0.50;;
75760;SDS011;64373;46.136;8.830;2024-02-23T03:54:04;0.63;;;0.40;;
75760;SDS011;64373;46.136;8.830;2024-02-23T03:56:37;0.65;;;0.50;;
75760;SDS011;64373;46.136;8.830;2024-02-23T03:59:04;0.60;;;0.38;;
75760;SDS011;64373;46.136;8.830;2024-02-23T04:01:29;1.15;;;0.40;;
75760;SDS011;64373;46.136;8.830;2024-02-23T04:03:55;0.38;;;0.20;;
75760;SDS011;64373;46.136;8.830;2024-02-23T04:06:20;0.30;;;0.20;;
75760;SDS011;64373;46.136;8.830;2024-02-23T04:08:46;0.30;;;0.30;;
75760;SDS011;64373;46.136;8.830;2024-02-23T04:11:12;0.30;;;0.20;;
75760;SDS011;64373;46.136;8.830;2024-02-23T04:13:38;0.25;;;0.20;;
75760;SDS011;64373;46.136;8.830;2024-02-23T04:16:03;1.25;;;0.40;;
75760;SDS011;64373;46.136;8.830;2024-02-23T04:18:29;0.32;;;0.32;;
75760;SDS011;64373;46.136;8.830;2024-02-23T04:20:54;0.52;;;0.20;;
75760;SDS011;64373;46.136;8.830;2024-02-23T04:23:20;0.15;;;0.10;;
75760;SDS011;64373;46.136;8.830;2024-02-23T04:25:46;0.20;;;0.20;;
75760;SDS011;64373;46.136;8.830;2024-02-23T04:28:11;0.30;;;0.30;;
75760;SDS011;64373;46.136;8.830;2024-02-23T04:30:37;0.22;;;0.20;;
75760;SDS011;64373;46.136;8.830;2024-02-23T04:33:02;1.30;;;0.40;;
75760;SDS011;64373;46.136;8.830;2024-02-23T04:35:27;0.63;;;0.30;;
75760;SDS011;64373;46.136;8.830;2024-02-23T04:37:53;0.45;;;0.38;;
75760;SDS011;64373;46.136;8.830;2024-02-23T04:40:18;0.75;;;0.40;;
75760;SDS011;64373;46.136;8.830;2024-02-23T04:42:44;0.50;;;0.30;;
75760;SDS011;64373;46.136;8.830;2024-02-23T04:45:10;0.82;;;0.30;;
75760;SDS011;64373;46.136;8.830;2024-02-23T04:47:36;0.25;;;0.25;;
75760;SDS011;64373;46.136;8.830;2024-02-23T04:50:01;0.65;;;0.47;;
75760;SDS011;64373;46.136;8.830;2024-02-23T04:52:28;0.70;;;0.40;;
75760;SDS011;64373;46.136;8.830;2024-02-23T04:54:54;0.57;;;0.57;;
75760;SDS011;64373;46.136;8.830;2024-02-23T04:57:19;0.77;;;0.30;;
75760;SDS011;64373;46.136;8.830;2024-02-23T04:59:45;0.35;;;0.30;;
75760;SDS011;64373;46.136;8.830;2024-02-23T05:02:10;1.00;;;0.25;;
75760;SDS011;64373;46.136;8.830;2024-02-23T05:04:36;0.20;;;0.20;;
75760;SDS011;64373;46.136;8.830;2024-02-23T05:07:02;0.40;;;0.22;;
75760;SDS011;64373;46.136;8.830;2024-02-23T05:09:27;0.22;;;0.20;;
75760;SDS011;64373;46.136;8.830;2024-02-23T05:11:52;1.58;;;0.30;;
75760;SDS011;64373;46.136;8.830;2024-02-23T05:14:18;2.55;;;0.50;;
75760;SDS011;64373;46.136;8.830;2024-02-23T05:16:43;0.50;;;0.30;;
75760;SDS011;64373;46.136;8.830;2024-02-23T05:19:09;0.15;;;0.15;;
75760;SDS011;64373;46.136;8.830;2024-02-23T05:21:34;0.32;;;0.30;;
75760;SDS011;64373;46.136;8.830;2024-02-23T05:24:00;0.93;;;0.63;;
75760;SDS011;64373;46.136;8.830;2024-02-23T05:26:25;23.38;;;2.97;;
75760;SDS011;64373;46.136;8.830;2024-02-23T05:28:51;8.63;;;1.55;;
75760;SDS011;64373;46.136;8.830;2024-02-23T05:31:17;1.25;;;0.68;;
75760;SDS011;64373;46.136;8.830;2024-02-23T05:33:43;2.28;;;0.80;;
75760;SDS011;64373;46.136;8.830;2024-02-23T05:36:08;0.85;;;0.82;;
75760;SDS011;64373;46.136;8.830;2024-02-23T05:38:34;0.40;;;0.40;;
75760;SDS011;64373;46.136;8.830;2024-02-23T05:40:59;1.15;;;0.80;;
75760;SDS011;64373;46.136;8.830;2024-02-23T05:43:25;2.22;;;1.00;;
75760;SDS011;64373;46.136;8.830;2024-02-23T05:45:51;4.20;;;2.00;;
75760;SDS011;64373;46.136;8.830;2024-02-23T05:48:17;1.77;;;1.40;;
75760;SDS011;64373;46.136;8.830;2024-02-23T05:50:45;1.67;;;1.20;;
75760;SDS011;64373;46.136;8.830;2024-02-23T05:53:10;1.17;;;0.80;;
75760;SDS011;64373;46.136;8.830;2024-02-23T05:55:38;1.60;;;1.05;;
75760;SDS011;64373;46.136;8.830;2024-02-23T05:58:08;1.27;;;0.88;;
75760;SDS011;64373;46.136;8.830;2024-02-23T06:00:34;1.05;;;0.65;;
75760;SDS011;64373;46.136;8.830;2024-02-23T06:03:00;1.88;;;0.70;;
75760;SDS011;64373;46.136;8.830;2024-02-23T06:05:26;1.90;;;0.65;;
75760;SDS011;64373;46.136;8.830;2024-02-23T06:07:51;0.68;;;0.45;;
75760;SDS011;64373;46.136;8.830;2024-02-23T06:10:17;0.88;;;0.50;;
75760;SDS011;64373;46.136;8.830;2024-02-23T06:12:42;1.38;;;1.00;;
75760;SDS011;64373;46.136;8.830;2024-02-23T06:15:08;12.10;;;1.85;;
75760;SDS011;64373;46.136;8.830;2024-02-23T06:17:34;25.58;;;2.17;;
75760;SDS011;64373;46.136;8.830;2024-02-23T06:19:59;1.00;;;0.82;;
75760;SDS011;64373;46.136;8.830;2024-02-23T06:22:25;1.00;;;0.68;;
75760;SDS011;64373;46.136;8.830;2024-02-23T06:24:50;0.77;;;0.60;;
75760;SDS011;64373;46.136;8.830;2024-02-23T06:27:16;0.68;;;0.50;;
75760;SDS011;64373;46.136;8.830;2024-02-23T06:29:41;0.77;;;0.57;;
75760;SDS011;64373;46.136;8.830;2024-02-23T06:32:07;0.82;;;0.60;;
75760;SDS011;64373;46.136;8.830;2024-02-23T06:34:32;1.23;;;0.60;;
75760;SDS011;64373;46.136;8.830;2024-02-23T06:36:58;0.50;;;0.40;;
75760;SDS011;64373;46.136;8.830;2024-02-23T06:39:24;0.88;;;0.50;;
75760;SDS011;64373;46.136;8.830;2024-02-23T06:41:49;1.02;;;0.50;;
75760;SDS011;64373;46.136;8.830;2024-02-23T06:44:15;1.00;;;0.70;;
75760;SDS011;64373;46.136;8.830;2024-02-23T06:46:40;0.43;;;0.40;;
75760;SDS011;64373;46.136;8.830;2024-02-23T06:49:07;0.80;;;0.52;;
75760;SDS011;64373;46.136;8.830;2024-02-23T06:51:33;0.70;;;0.70;;
75760;SDS011;64373;46.136;8.830;2024-02-23T06:53:58;1.20;;;0.90;;
75760;SDS011;64373;46.136;8.830;2024-02-23T06:56:24;1.48;;;1.00;;
75760;SDS011;64373;46.136;8.830;2024-02-23T06:58:49;0.90;;;0.80;;
75760;SDS011;64373;46.136;8.830;2024-02-23T07:01:15;1.00;;;0.90;;
75760;SDS011;64373;46.136;8.830;2024-02-23T07:03:40;0.80;;;0.80;;
75760;SDS011;64373;46.136;8.830;2024-02-23T07:06:08;1.05;;;0.60;;
75760;SDS011;64373;46.136;8.830;2024-02-23T07:08:37;1.00;;;0.80;;
75760;SDS011;64373;46.136;8.830;2024-02-23T07:11:02;0.70;;;0.70;;
75760;SDS011;64373;46.136;8.830;2024-02-23T07:13:28;0.60;;;0.60;;
75760;SDS011;64373;46.136;8.830;2024-02-23T07:15:55;1.60;;;1.00;;
75760;SDS011;64373;46.136;8.830;2024-02-23T07:18:21;2.00;;;1.27;;
75760;SDS011;64373;46.136;8.830;2024-02-23T07:20:47;1.38;;;1.02;;
75760;SDS011;64373;46.136;8.830;2024-02-23T07:23:13;1.02;;;0.93;;
75760;SDS011;64373;46.136;8.830;2024-02-23T07:25:38;1.08;;;0.90;;
75760;SDS011;64373;46.136;8.830;2024-02-23T07:28:04;1.35;;;0.93;;
75760;SDS011;64373;46.136;8.830;2024-02-23T07:30:29;0.60;;;0.60;;
75760;SDS011;64373;46.136;8.830;2024-02-23T07:32:55;1.08;;;0.70;;
75760;SDS011;64373;46.136;8.830;2024-02-23T07:35:21;0.60;;;0.50;;
75760;SDS011;64373;46.136;8.830;2024-02-23T07:37:46;0.40;;;0.40;;
75760;SDS011;64373;46.136;8.830;2024-02-23T07:40:12;0.35;;;0.30;;
75760;SDS011;64373;46.136;8.830;2024-02-23T07:42:38;0.30;;;0.30;;
75760;SDS011;64373;46.136;8.830;2024-02-23T07:45:03;0.60;;;0.40;;
75760;SDS011;64373;46.136;8.830;2024-02-23T07:47:33;0.52;;;0.38;;
75760;SDS011;64373;46.136;8.830;2024-02-23T07:49:59;0.80;;;0.30;;
75760;SDS011;64373;46.136;8.830;2024-02-23T07:52:25;0.28;;;0.22;;
75760;SDS011;64373;46.136;8.830;2024-02-23T07:54:53;0.40;;;0.40;;
75760;SDS011;64373;46.136;8.830;2024-02-23T07:57:19;1.50;;;0.90;;
75760;SDS011;64373;46.136;8.830;2024-02-23T07:59:45;1.58;;;0.95;;
75760;SDS011;64373;46.136;8.830;2024-02-23T08:02:11;1.38;;;0.80;;
75760;SDS011;64373;46.136;8.830;2024-02-23T08:04:36;1.98;;;0.88;;
75760;SDS011;64373;46.136;8.830;2024-02-23T08:07:03;1.55;;;0.80;;
75760;SDS011;64373;46.136;8.830;2024-02-23T08:09:29;2.05;;;0.80;;
75760;SDS011;64373;46.136;8.830;2024-02-23T08:11:54;1.30;;;0.60;;
75760;SDS011;64373;46.136;8.830;2024-02-23T08:14:20;0.70;;;0.55;;
75760;SDS011;64373;46.136;8.830;2024-02-23T08:16:45;1.85;;;0.85;;
75760;SDS011;64373;46.136;8.830;2024-02-23T08:19:11;0.70;;;0.50;;
75760;SDS011;64373;46.136;8.830;2024-02-23T08:21:37;0.50;;;0.50;;
75760;SDS011;64373;46.136;8.830;2024-02-23T08:24:02;1.02;;;0.60;;
75760;SDS011;64373;46.136;8.830;2024-02-23T08:26:28;0.50;;;0.50;;
75760;SDS011;64373;46.136;8.830;2024-02-23T08:28:54;0.50;;;0.50;;
75760;SDS011;64373;46.136;8.830;2024-02-23T08:31:19;2.03;;;0.80;;
75760;SDS011;64373;46.136;8.830;2024-02-23T08:33:45;0.70;;;0.70;;
75760;SDS011;64373;46.136;8.830;2024-02-23T08:36:11;1.25;;;0.70;;
75760;SDS011;64373;46.136;8.830;2024-02-23T08:38:37;1.08;;;0.93;;
75760;SDS011;64373;46.136;8.830;2024-02-23T08:41:02;2.05;;;0.70;;
75760;SDS011;64373;46.136;8.830;2024-02-23T08:43:28;1.52;;;0.82;;
75760;SDS011;64373;46.136;8.830;2024-02-23T08:45:53;1.17;;;0.80;;
75760;SDS011;64373;46.136;8.830;2024-02-23T08:48:19;1.48;;;1.00;;
75760;SDS011;64373;46.136;8.830;2024-02-23T08:50:44;5.20;;;1.50;;
75760;SDS011;64373;46.136;8.830;2024-02-23T08:53:10;9.38;;;1.73;;
75760;SDS011;64373;46.136;8.830;2024-02-23T08:55:35;0.90;;;0.60;;
75760;SDS011;64373;46.136;8.830;2024-02-23T08:58:01;1.25;;;0.65;;
75760;SDS011;64373;46.136;8.830;2024-02-23T09:00:26;0.80;;;0.60;;
75760;SDS011;64373;46.136;8.830;2024-02-23T09:02:52;0.60;;;0.60;;
75760;SDS011;64373;46.136;8.830;2024-02-23T09:05:17;0.77;;;0.70;;
75760;SDS011;64373;46.136;8.830;2024-02-23T09:07:43;3.30;;;1.10;;
75760;SDS011;64373;46.136;8.830;2024-02-23T09:10:10;6.13;;;1.38;;
75760;SDS011;64373;46.136;8.830;2024-02-23T09:12:36;6.20;;;2.00;;
75760;SDS011;64373;46.136;8.830;2024-02-23T09:15:02;32.80;;;4.00;;
75760;SDS011;64373;46.136;8.830;2024-02-23T09:17:28;31.08;;;3.97;;
75760;SDS011;64373;46.136;8.830;2024-02-23T09:19:53;1.58;;;1.30;;
75760;SDS011;64373;46.136;8.830;2024-02-23T09:22:19;1.42;;;1.17;;
75760;SDS011;64373;46.136;8.830;2024-02-23T09:24:44;1.60;;;1.10;;
75760;SDS011;64373;46.136;8.830;2024-02-23T09:27:10;0.80;;;0.70;;
75760;SDS011;64373;46.136;8.830;2024-02-23T09:29:37;1.10;;;0.60;;
75760;SDS011;64373;46.136;8.830;2024-02-23T09:32:11;1.70;;;0.60;;
75760;SDS011;64373;46.136;8.830;2024-02-23T09:34:42;0.80;;;0.65;;
75760;SDS011;64373;46.136;8.830;2024-02-23T09:39:41;0.50;;;0.40;;
75760;SDS011;64373;46.136;8.830;2024-02-23T09:42:13;1.42;;;0.63;;
75760;SDS011;64373;46.136;8.830;2024-02-23T09:44:39;0.93;;;0.70;;
75760;SDS011;64373;46.136;8.830;2024-02-23T09:47:07;0.70;;;0.70;;
75760;SDS011;64373;46.136;8.830;2024-02-23T09:49:38;2.40;;;1.15;;
75760;SDS011;64373;46.136;8.830;2024-02-23T09:52:08;1.55;;;1.27;;
75760;SDS011;64373;46.136;8.830;2024-02-23T09:54:35;2.88;;;1.35;;
75760;SDS011;64373;46.136;8.830;2024-02-23T09:57:06;1.65;;;1.30;;
75760;SDS011;64373;46.136;8.830;2024-02-23T09:59:33;1.45;;;1.00;;
75760;SDS011;64373;46.136;8.830;2024-02-23T10:01:59;1.02;;;0.88;;
75760;SDS011;64373;46.136;8.830;2024-02-23T10:04:26;1.60;;;0.95;;
75760;SDS011;64373;46.136;8.830;2024-02-23T10:06:54;2.40;;;1.35;;
75760;SDS011;64373;46.136;8.830;2024-02-23T10:09:21;11.63;;;2.28;;
75760;SDS011;64373;46.136;8.830;2024-02-23T10:11:51;96.00;;;6.00;;
75760;SDS011;64373;46.136;8.830;2024-02-23T10:14:18;28.05;;;3.33;;
75760;SDS011;64373;46.136;8.830;2024-02-23T10:16:44;10.90;;;2.55;;
75760;SDS011;64373;46.136;8.830;2024-02-23T10:19:09;77.05;;;5.90;;
75760;SDS011;64373;46.136;8.830;2024-02-23T10:21:35;109.47;;;7.68;;
75760;SDS011;64373;46.136;8.830;2024-02-23T10:24:01;276.77;;;15.15;;
75760;SDS011;64373;46.136;8.830;2024-02-23T10:26:27;17.00;;;2.85;;
75760;SDS011;64373;46.136;8.830;2024-02-23T10:28:52;216.95;;;13.43;;
75760;SDS011;64373;46.136;8.830;2024-02-23T10:31:18;106.65;;;7.93;;
75760;SDS011;64373;46.136;8.830;2024-02-23T10:33:46;46.03;;;7.05;;
75760;SDS011;64373;46.136;8.830;2024-02-23T10:36:15;150.20;;;9.45;;
75760;SDS011;64373;46.136;8.830;2024-02-23T10:38:41;335.33;;;19.98;;
75760;SDS011;64373;46.136;8.830;2024-02-23T10:41:11;59.90;;;10.35;;
75760;SDS011;64373;46.136;8.830;2024-02-23T10:43:48;408.95;;;21.20;;
75760;SDS011;64373;46.136;8.830;2024-02-23T10:46:16;116.32;;;10.20;;
75760;SDS011;64373;46.136;8.830;2024-02-23T10:48:44;179.02;;;12.23;;
75760;SDS011;64373;46.136;8.830;2024-02-23T10:51:13;97.95;;;8.95;;
75760;SDS011;64373;46.136;8.830;2024-02-23T10:53:39;6.53;;;2.88;;
75760;SDS011;64373;46.136;8.830;2024-02-23T10:56:05;12.80;;;3.38;;
75760;SDS011;64373;46.136;8.830;2024-02-23T10:58:32;2.30;;;1.67;;
75760;SDS011;64373;46.136;8.830;2024-02-23T11:00:58;30.33;;;5.47;;
75760;SDS011;64373;46.136;8.830;2024-02-23T11:03:26;2.92;;;2.00;;
75760;SDS011;64373;46.136;8.830;2024-02-23T11:05:53;2.47;;;1.42;;
75760;SDS011;64373;46.136;8.830;2024-02-23T11:08:19;1.92;;;1.60;;
75760;SDS011;64373;46.136;8.830;2024-02-23T11:10:51;3.00;;;2.22;;
75760;SDS011;64373;46.136;8.830;2024-02-23T11:13:17;3.08;;;2.03;;
75760;SDS011;64373;46.136;8.830;2024-02-23T11:15:43;3.83;;;2.80;;
75760;SDS011;64373;46.136;8.830;2024-02-23T11:18:21;3.38;;;2.80;;
75760;SDS011;64373;46.136;8.830;2024-02-23T11:20:53;3.40;;;2.00;;
75760;SDS011;64373;46.136;8.830;2024-02-23T11:23:24;2.20;;;1.83;;
75760;SDS011;64373;46.136;8.830;2024-02-23T11:28:27;2.45;;;1.85;;
75760;SDS011;64373;46.136;8.830;2024-02-23T11:30:53;1.90;;;1.48;;
75760;SDS011;64373;46.136;8.830;2024-02-23T11:33:29;2.13;;;1.90;;
75760;SDS011;64373;46.136;8.830;2024-02-23T11:36:07;1.85;;;1.60;;
75760;SDS011;64373;46.136;8.830;2024-02-23T11:38:38;2.42;;;1.63;;
75760;SDS011;64373;46.136;8.830;2024-02-23T11:41:09;2.58;;;1.80;;
75760;SDS011;64373;46.136;8.830;2024-02-23T11:43:41;2.40;;;2.10;;
75760;SDS011;64373;46.136;8.830;2024-02-23T11:46:16;2.25;;;1.73;;
75760;SDS011;64373;46.136;8.830;2024-02-23T11:48:47;3.78;;;2.33;;
75760;SDS011;64373;46.136;8.830;2024-02-23T11:51:23;2.63;;;1.40;;
75760;SDS011;64373;46.136;8.830;2024-02-23T11:53:56;1.92;;;1.42;;
75760;SDS011;64373;46.136;8.830;2024-02-23T11:56:29;2.38;;;1.40;;
75760;SDS011;64373;46.136;8.830;2024-02-23T11:58:59;1.50;;;1.30;;
75760;SDS011;64373;46.136;8.830;2024-02-23T12:01:28;1.98;;;1.10;;
75760;SDS011;64373;46.136;8.830;2024-02-23T12:03:54;1.63;;;1.17;;
75760;SDS011;64373;46.136;8.830;2024-02-23T12:06:20;1.73;;;1.23;;
75760;SDS011;64373;46.136;8.830;2024-02-23T12:08:46;2.67;;;1.73;;
75760;SDS011;64373;46.136;8.830;2024-02-23T12:11:12;2.17;;;1.92;;
75760;SDS011;64373;46.136;8.830;2024-02-23T12:13:39;2.65;;;2.05;;
75760;SDS011;64373;46.136;8.830;2024-02-23T12:16:07;2.03;;;1.60;;
75760;SDS011;64373;46.136;8.830;2024-02-23T12:18:33;1.70;;;1.60;;
75760;SDS011;64373;46.136;8.830;2024-02-23T12:20:59;2.28;;;1.30;;
75760;SDS011;64373;46.136;8.830;2024-02-23T12:23:27;1.95;;;1.45;;
75760;SDS011;64373;46.136;8.830;2024-02-23T12:25:56;1.45;;;1.15;;
75760;SDS011;64373;46.136;8.830;2024-02-23T12:28:22;1.95;;;1.20;;
75760;SDS011;64373;46.136;8.830;2024-02-23T12:30:58;2.20;;;1.70;;
75760;SDS011;64373;46.136;8.830;2024-02-23T12:33:36;1.50;;;1.30;;
75760;SDS011;64373;46.136;8.830;2024-02-23T12:36:05;1.90;;;1.35;;
75760;SDS011;64373;46.136;8.830;2024-02-23T12:38:32;1.35;;;1.20;;
75760;SDS011;64373;46.136;8.830;2024-02-23T12:40:57;1.63;;;1.30;;
75760;SDS011;64373;46.136;8.830;2024-02-23T12:43:24;2.40;;;1.40;;
75760;SDS011;64373;46.136;8.830;2024-02-23T12:45:53;2.10;;;1.33;;
75760;SDS011;64373;46.136;8.830;2024-02-23T12:48:22;1.88;;;1.13;;
75760;SDS011;64373;46.136;8.830;2024-02-23T12:50:48;1.00;;;0.90;;
75760;SDS011;64373;46.136;8.830;2024-02-23T12:56:06;1.27;;;1.17;;
75760;SDS011;64373;46.136;8.830;2024-02-23T12:58:43;1.42;;;0.90;;
75760;SDS011;64373;46.136;8.830;2024-02-23T13:01:09;1.15;;;0.90;;
75760;SDS011;64373;46.136;8.830;2024-02-23T13:03:36;0.95;;;0.70;;
75760;SDS011;64373;46.136;8.830;2024-02-23T13:06:03;0.73;;;0.70;;
75760;SDS011;64373;46.136;8.830;2024-02-23T13:08:29;0.68;;;0.60;;
75760;SDS011;64373;46.136;8.830;2024-02-23T13:10:55;0.75;;;0.70;;
75760;SDS011;64373;46.136;8.830;2024-02-23T13:13:21;0.77;;;0.70;;
75760;SDS011;64373;46.136;8.830;2024-02-23T13:15:47;0.82;;;0.73;;
75760;SDS011;64373;46.136;8.830;2024-02-23T13:18:14;1.85;;;1.50;;
75760;SDS011;64373;46.136;8.830;2024-02-23T13:20:40;1.40;;;1.27;;
75760;SDS011;64373;46.136;8.830;2024-02-23T13:23:09;1.92;;;1.52;;
75760;SDS011;64373;46.136;8.830;2024-02-23T13:25:35;2.10;;;1.35;;
75760;SDS011;64373;46.136;8.830;2024-02-23T13:28:01;1.67;;;1.10;;
75760;SDS011;64373;46.136;8.830;2024-02-23T13:30:27;1.02;;;0.80;;
75760;SDS011;64373;46.136;8.830;2024-02-23T13:32:53;1.30;;;0.90;;
75760;SDS011;64373;46.136;8.830;2024-02-23T13:35:18;3.90;;;1.50;;
75760;SDS011;64373;46.136;8.830;2024-02-23T13:37:44;3.03;;;1.80;;
75760;SDS011;64373;46.136;8.830;2024-02-23T13:40:10;1.90;;;1.20;;
75760;SDS011;64373;46.136;8.830;2024-02-23T13:42:36;1.60;;;1.30;;
75760;SDS011;64373;46.136;8.830;2024-02-23T13:45:06;0.80;;;0.77;;
75760;SDS011;64373;46.136;8.830;2024-02-23T13:47:32;0.88;;;0.70;;
75760;SDS011;64373;46.136;8.830;2024-02-23T13:49:59;1.30;;;0.98;;
75760;SDS011;64373;46.136;8.830;2024-02-23T13:52:24;1.15;;;0.88;;
75760;SDS011;64373;46.136;8.830;2024-02-23T13:54:50;1.52;;;0.80;;
75760;SDS011;64373;46.136;8.830;2024-02-23T13:57:15;1.08;;;0.70;;
75760;SDS011;64373;46.136;8.830;2024-02-23T13:59:41;1.05;;;0.50;;
75760;SDS011;64373;46.136;8.830;2024-02-23T14:02:07;0.75;;;0.70;;
75760;SDS011;64373;46.136;8.830;2024-02-23T14:04:32;1.30;;;1.20;;
75760;SDS011;64373;46.136;8.830;2024-02-23T14:06:58;1.00;;;0.90;;
75760;SDS011;64373;46.136;8.830;2024-02-23T14:09:23;0.57;;;0.57;;
75760;SDS011;64373;46.136;8.830;2024-02-23T14:11:49;0.60;;;0.60;;
75760;SDS011;64373;46.136;8.830;2024-02-23T14:14:14;0.73;;;0.60;;
75760;SDS011;64373;46.136;8.830;2024-02-23T14:16:40;0.98;;;0.88;;
75760;SDS011;64373;46.136;8.830;2024-02-23T14:19:05;0.98;;;0.80;;
75760;SDS011;64373;46.136;8.830;2024-02-23T14:21:31;1.48;;;0.90;;
75760;SDS011;64373;46.136;8.830;2024-02-23T14:23:56;1.08;;;0.90;;
75760;SDS011;64373;46.136;8.830;2024-02-23T14:26:22;1.50;;;0.75;;
75760;SDS011;64373;46.136;8.830;2024-02-23T14:28:47;1.10;;;0.60;;
75760;SDS011;64373;46.136;8.830;2024-02-23T14:31:14;1.08;;;0.85;;
75760;SDS011;64373;46.136;8.830;2024-02-23T14:33:40;0.80;;;0.50;;
75760;SDS011;64373;46.136;8.830;2024-02-23T14:36:06;0.80;;;0.50;;
75760;SDS011;64373;46.136;8.830;2024-02-23T14:38:31;1.08;;;0.20;;
75760;SDS011;64373;46.136;8.830;2024-02-23T14:40:57;0.20;;;0.20;;
75760;SDS011;64373;46.136;8.830;2024-02-23T14:43:24;0.52;;;0.30;;
75760;SDS011;64373;46.136;8.830;2024-02-23T14:45:49;0.57;;;0.40;;
75760;SDS011;64373;46.136;8.830;2024-02-23T14:48:17;0.32;;;0.32;;